Time;durP1;ratioP1;P1;durP2;ratioP2;P2;SDS_P1;SDS_P2;PMS_P1;PMS_P2;Temp;Humidity;BMP_temperature;BMP_pressure;BME280_temperature;BME280_humidity;BME280_pressure;Samples;Min_cycle;Max_cycle;Signal;HPM_P1;HPM_P2
2021/12/26 00:01:25;;;;;;;6.60;5.25;;;;;;;0.18;74.11;100011.19;6215456;23;20024;-67
2021/12/26 00:04:28;;;;;;;6.40;5.22;;;;;;;0.26;73.67;100013.66;6215379;23;20027;-67
2021/12/26 00:07:32;;;;;;;6.47;4.68;;;;;;;0.33;73.66;100006.66;6215295;23;20075;-67
2021/12/26 00:10:35;;;;;;;7.25;5.05;;;;;;;0.31;73.72;99998.13;6215073;23;20027;-67
2021/12/26 00:13:38;;;;;;;7.63;5.65;;;;;;;0.35;72.68;99999.75;6215236;23;20082;-66
2021/12/26 00:16:42;;;;;;;7.35;5.55;;;;;;;0.23;73.16;99998.28;6215657;23;20434;-66
2021/12/26 00:19:45;;;;;;;7.43;5.50;;;;;;;0.03;73.99;100001.19;6215622;23;20043;-66
2021/12/26 00:22:49;;;;;;;8.50;6.38;;;;;;;0.11;74.62;99999.34;6215164;23;20151;-66
2021/12/26 00:25:54;;;;;;;9.45;6.47;;;;;;;0.12;74.19;99998.47;6215004;23;20586;-66
2021/12/26 00:29:01;;;;;;;6.82;5.38;;;;;;;0.27;74.23;99991.34;6214914;23;20035;-66
2021/12/26 00:32:06;;;;;;;8.73;5.40;;;;;;;0.16;73.06;99996.66;6215122;23;20028;-66
2021/12/26 00:35:11;;;;;;;7.47;5.78;;;;;;;0.28;72.95;100000.75;6196556;23;20028;-67
2021/12/26 00:38:15;;;;;;;8.85;5.80;;;;;;;0.28;73.44;99993.88;6196643;23;20022;-66
2021/12/26 00:41:19;;;;;;;6.80;5.10;;;;;;;0.27;74.18;99992.19;6196390;23;20074;-66
2021/12/26 00:44:22;;;;;;;8.50;6.28;;;;;;;0.25;73.21;99995.66;6215014;23;20469;-67
2021/12/26 00:47:29;;;;;;;8.18;5.47;;;;;;;0.23;73.10;99993.97;6196646;23;20140;-67
2021/12/26 00:50:33;;;;;;;7.88;5.95;;;;;;;0.18;73.41;99982.91;6214827;23;20256;-66
2021/12/26 00:53:37;;;;;;;7.70;5.95;;;;;;;0.23;72.87;99983.69;6214895;23;20028;-66
2021/12/26 00:56:40;;;;;;;7.90;5.68;;;;;;;0.13;73.38;99986.47;6214815;23;20109;-66
2021/12/26 00:59:43;;;;;;;8.32;5.90;;;;;;;0.16;73.67;99982.13;6214816;23;20075;-67
2021/12/26 01:02:47;;;;;;;;;;;;;;;0.12;73.31;99982.19;6196971;23;20070;-66
2021/12/26 01:05:54;;;;;;;9.70;6.03;;;;;;;0.02;73.74;99975.53;6195960;23;19914;-66
2021/12/26 01:08:58;;;;;;;6.85;5.72;;;;;;;0.07;73.54;99976.31;6195925;23;20078;-68
2021/12/26 01:12:10;;;;;;;8.07;5.68;;;;;;;0.19;72.72;99971.78;6193796;23;20096;-67
2021/12/26 01:15:14;;;;;;;7.35;5.70;;;;;;;0.12;73.22;99965.03;6193755;23;20405;-66
2021/12/26 01:18:22;;;;;;;9.43;5.88;;;;;;;0.19;72.73;99973.47;6214940;23;20023;-66
2021/12/26 01:21:28;;;;;;;7.00;5.88;;;;;;;0.11;72.85;99980.50;6196306;23;20481;-66
2021/12/26 01:24:39;;;;;;;8.35;6.13;;;;;;;0.08;72.37;99978.81;6196051;23;20091;-67
2021/12/26 01:27:42;;;;;;;7.35;5.30;;;;;;;0.01;72.46;99984.97;6196242;23;20469;-66
2021/12/26 01:30:45;;;;;;;8.00;6.13;;;;;;;0.03;73.23;99978.06;6196272;23;20023;-66
2021/12/26 01:33:53;;;;;;;9.50;6.65;;;;;;;0.03;71.79;99983.19;6196271;23;20024;-66
2021/12/26 01:37:05;;;;;;;8.88;6.65;;;;;;;-0.05;73.07;99995.34;6195962;23;20400;-66
2021/12/26 01:40:44;;;;;;;7.28;5.90;;;;;;;-0.06;73.25;99993.66;6170574;23;20480;-66
2021/12/26 01:44:04;;;;;;;10.63;5.95;;;;;;;-0.02;73.46;99995.28;6196073;23;20469;-67
2021/12/26 01:47:19;;;;;;;8.65;6.47;;;;;;;0.13;73.03;99989.88;6196248;23;20082;-67
2021/12/26 01:50:23;;;;;;;7.40;5.90;;;;;;;0.17;72.69;99988.94;6196189;23;20023;-67
2021/12/26 01:53:36;;;;;;;8.63;6.55;;;;;;;0.10;72.63;99992.50;6195809;23;20027;-66
2021/12/26 01:56:41;;;;;;;12.17;7.70;;;;;;;0.06;72.77;99995.16;6196080;23;20027;-66
2021/12/26 01:59:47;;;;;;;9.10;6.13;;;;;;;0.18;72.45;99992.38;6196175;23;20067;-66
2021/12/26 02:02:58;;;;;;;8.38;6.20;;;;;;;0.18;72.62;99989.78;6196262;23;20043;-66
2021/12/26 02:06:03;;;;;;;8.18;6.25;;;;;;;0.14;72.50;99985.59;6196131;23;20346;-66
2021/12/26 02:09:14;;;;;;;9.27;6.47;;;;;;;0.16;72.52;99984.69;6195565;23;20027;-66
2021/12/26 02:12:17;;;;;;;7.63;6.38;;;;;;;-0.44;74.24;99977.16;6195971;23;20078;-66
2021/12/26 02:15:22;;;;;;;7.93;6.40;;;;;;;-0.25;73.60;99972.56;6195937;23;20027;-66
2021/12/26 02:18:38;;;;;;;9.75;6.30;;;;;;;-0.13;73.10;99976.63;6216288;23;20424;-66
2021/12/26 02:22:31;;;;;;;10.00;6.78;;;;;;;-0.08;73.36;99977.41;6198191;23;20092;-67
2021/12/26 02:28:47;;;;;;;10.25;7.10;;;;;;;-0.04;73.59;99976.47;6197571;23;20521;-66
2021/12/26 02:31:52;;;;;;;11.18;7.43;;;;;;;-0.01;73.55;99972.13;6197884;23;20027;-66
2021/12/26 02:34:55;;;;;;;9.68;7.30;;;;;;;-0.12;73.15;99983.50;6216243;23;20027;-67
2021/12/26 02:37:58;;;;;;;8.88;6.97;;;;;;;-0.16;73.51;99974.13;6197662;23;20086;-67
2021/12/26 02:41:02;;;;;;;9.35;7.53;;;;;;;-0.16;73.87;99966.41;6197696;23;20071;-66
2021/12/26 02:44:06;;;;;;;9.63;6.72;;;;;;;-0.01;73.46;99966.13;6180710;23;20105;-67
2021/12/26 02:47:28;;;;;;;9.50;7.68;;;;;;;-0.05;73.63;99967.91;6197589;23;20151;-66
2021/12/26 02:50:32;;;;;;;11.40;8.18;;;;;;;0.02;73.46;99960.94;6197680;23;20402;-66
2021/12/26 02:53:35;;;;;;;10.02;7.15;;;;;;;-0.07;73.31;99958.53;6197493;23;20023;-66
2021/12/26 02:56:38;;;;;;;;;;;;;;;-0.05;73.56;99961.94;6216672;23;20465;-67
2021/12/26 02:59:42;;;;;;;9.52;6.35;;;;;;;-0.14;73.80;99956.97;6197730;23;20011;-66
2021/12/26 03:02:48;;;;;;;10.85;6.97;;;;;;;0.04;73.32;99954.06;6216087;23;20516;-66
2021/12/26 03:05:58;;;;;;;10.15;7.57;;;;;;;-0.05;73.45;99954.22;6215754;23;20473;-66
2021/12/26 03:09:03;;;;;;;7.93;6.35;;;;;;;0.05;73.43;99953.19;6197247;23;20074;-66
2021/12/26 03:12:09;;;;;;;9.40;7.15;;;;;;;-0.03;72.58;99955.91;6215913;23;20026;-66
2021/12/26 03:15:12;;;;;;;10.07;7.72;;;;;;;-0.08;73.00;99959.41;6215876;23;20027;-66
2021/12/26 03:18:15;;;;;;;10.43;7.85;;;;;;;-0.05;72.81;99965.34;6215925;23;20271;-66
2021/12/26 03:21:19;;;;;;;8.82;7.28;;;;;;;-0.02;73.19;99962.72;6215694;23;20078;-67
2021/12/26 03:24:24;;;;;;;8.30;6.53;;;;;;;-0.02;72.38;99961.88;6215739;23;20075;-66
2021/12/26 03:27:27;;;;;;;8.85;7.38;;;;;;;-0.07;72.68;99961.09;6215787;23;20476;-66
2021/12/26 03:30:32;;;;;;;;;;;;;;;-0.01;72.22;99956.69;6197691;23;20075;-66
2021/12/26 03:33:37;;;;;;;9.73;7.03;;;;;;;-0.10;72.54;99963.72;6197210;23;19946;-67
2021/12/26 03:36:42;;;;;;;9.85;7.95;;;;;;;-0.24;73.03;99966.56;6215435;23;20525;-66
2021/12/26 03:39:45;;;;;;;8.95;7.43;;;;;;;-0.27;73.55;99969.16;6197090;23;20051;-67
2021/12/26 03:42:51;;;;;;;9.35;6.93;;;;;;;-0.17;73.32;99954.44;6215646;23;20031;-66
2021/12/26 03:45:55;;;;;;;8.70;7.15;;;;;;;-0.09;73.01;99957.75;6215590;23;20401;-66
2021/12/26 03:49:01;;;;;;;11.23;7.75;;;;;;;-0.14;72.54;99950.09;6215301;23;20063;-66
2021/12/26 03:52:04;;;;;;;10.90;7.35;;;;;;;-0.29;72.86;99961.50;6215543;23;20035;-66
2021/12/26 03:55:09;;;;;;;10.32;8.02;;;;;;;-0.20;73.35;99959.63;6196921;23;20469;-66
2021/12/26 03:58:13;;;;;;;9.07;7.22;;;;;;;-0.26;73.43;99965.72;6196800;23;20371;-66
2021/12/26 04:01:17;;;;;;;10.25;7.43;;;;;;;-0.33;73.62;99959.84;6196858;23;20039;-66
2021/12/26 04:04:21;;;;;;;8.85;7.18;;;;;;;-0.17;72.96;99957.84;6196915;23;20075;-66
2021/12/26 04:07:24;;;;;;;9.00;6.97;;;;;;;-0.24;73.13;99964.81;6215306;23;20354;-66
2021/12/26 04:10:28;;;;;;;12.45;7.93;;;;;;;-0.22;73.84;99966.50;6197230;23;20027;-66
2021/12/26 04:17:34;;;;;;;8.88;7.43;;;;;;;-0.26;73.69;99961.41;6196638;23;20051;-66
2021/12/26 04:20:37;;;;;;;10.13;7.82;;;;;;;-0.23;73.27;99955.38;6196403;23;20035;-66
2021/12/26 04:23:40;;;;;;;12.65;7.63;;;;;;;-0.16;73.68;99962.13;6196632;23;20082;-66
2021/12/26 04:26:44;;;;;;;10.55;7.78;;;;;;;-0.15;73.21;99953.53;6196813;23;20077;-66
2021/12/26 04:29:48;;;;;;;;;;;;;;;-0.13;73.60;99961.22;6196983;23;20354;-66
2021/12/26 04:32:51;;;;;;;;;;;;;;;-0.12;73.13;99957.78;6187465;23;19958;-69
2021/12/26 04:35:55;;;;;;;11.45;8.10;;;;;;;-0.14;73.31;99957.81;6190919;23;19914;-71
2021/12/26 04:38:59;;;;;;;10.30;7.60;;;;;;;-0.14;72.91;99949.25;6191212;23;20630;-67
2021/12/26 04:42:03;;;;;;;8.98;7.40;;;;;;;-0.20;72.91;99946.78;6210472;23;20070;-67
2021/12/26 04:45:41;;;;;;;11.77;7.55;;;;;;;-0.12;72.98;99950.91;6209804;23;20389;-68
2021/12/26 04:49:21;;;;;;;9.32;7.15;;;;;;;-0.09;72.51;99944.88;6092903;23;20029;-68
2021/12/26 04:52:24;;;;;;;9.13;7.35;;;;;;;-0.12;72.82;99948.34;6191795;23;20027;-68
2021/12/26 04:55:28;;;;;;;10.23;7.10;;;;;;;-0.03;72.69;99948.19;6191356;23;20477;-68
2021/12/26 04:58:31;;;;;;;9.85;7.70;;;;;;;-0.04;72.69;99940.50;6191582;23;20496;-67
2021/12/26 05:01:35;;;;;;;9.35;7.25;;;;;;;-0.12;72.50;99948.34;6191620;23;20117;-67
2021/12/26 05:04:40;;;;;;;9.70;6.85;;;;;;;-0.11;72.74;99954.34;6191788;23;20031;-67
2021/12/26 05:07:46;;;;;;;10.18;8.18;;;;;;;-0.07;72.29;99956.81;6191188;23;20413;-68
2021/12/26 05:10:49;;;;;;;9.48;8.10;;;;;;;-0.16;73.22;99959.56;6208700;23;20027;-68
2021/12/26 05:13:53;;;;;;;9.57;7.75;;;;;;;-0.15;73.27;99952.72;6210442;23;20128;-67
2021/12/26 05:16:56;;;;;;;10.88;7.70;;;;;;;-0.16;73.41;99946.72;6210228;23;20100;-67
2021/12/26 05:20:00;;;;;;;9.43;7.97;;;;;;;-0.16;73.56;99951.88;6190338;23;20078;-67
2021/12/26 05:23:04;;;;;;;9.13;7.18;;;;;;;-0.10;72.76;99950.88;6212050;23;20026;-66
2021/12/26 05:26:09;;;;;;;10.30;7.85;;;;;;;-0.10;72.95;99956.03;6194963;23;20031;-65
2021/12/26 05:29:12;;;;;;;10.25;8.02;;;;;;;-0.14;73.75;99949.25;6214430;23;20027;-65
2021/12/26 05:32:17;;;;;;;9.77;7.80;;;;;;;-0.12;73.04;99942.38;6196050;23;20027;-66
2021/12/26 05:35:20;;;;;;;11.45;8.65;;;;;;;-0.27;73.05;99943.47;6196119;23;20354;-65
2021/12/26 05:38:26;;;;;;;9.88;7.22;;;;;;;-0.07;73.03;99940.53;6196114;23;20027;-65
2021/12/26 05:41:32;;;;;;;10.63;8.85;;;;;;;-0.21;72.52;99934.81;6196094;23;20027;-65
2021/12/26 05:44:43;;;;;;;11.85;9.02;;;;;;;-0.13;72.65;99936.34;6195999;23;20032;-65
2021/12/26 05:47:47;;;;;;;12.77;7.85;;;;;;;-0.07;72.59;99930.28;6191073;23;20027;-66
2021/12/26 05:50:52;;;;;;;10.68;8.15;;;;;;;-0.15;73.41;99935.56;6173592;23;20024;-65
2021/12/26 05:54:21;;;;;;;12.00;8.70;;;;;;;-0.07;73.27;99933.69;6209546;23;20120;-65
2021/12/26 05:57:25;;;;;;;11.60;9.05;;;;;;;-0.05;72.63;99931.09;6190981;23;20032;-67
2021/12/26 06:00:28;;;;;;;11.40;8.57;;;;;;;-0.11;73.08;99929.47;6189534;23;20074;-66
2021/12/26 06:03:33;;;;;;;10.90;8.00;;;;;;;-0.08;73.13;99926.84;6188554;23;20425;-66
2021/12/26 06:06:37;;;;;;;11.60;7.68;;;;;;;-0.07;72.65;99932.84;6188638;23;20083;-66
2021/12/26 06:09:40;;;;;;;10.85;8.50;;;;;;;-0.26;73.01;99930.59;6190452;23;20027;-66
2021/12/26 06:12:44;;;;;;;9.68;7.88;;;;;;;-0.32;73.16;99935.88;6191260;23;20111;-66
2021/12/26 06:15:48;;;;;;;10.82;7.80;;;;;;;-0.16;73.28;99940.72;6190907;23;20032;-66
2021/12/26 06:18:52;;;;;;;10.20;8.15;;;;;;;-0.16;73.52;99940.72;6190328;23;20023;-66
2021/12/26 06:22:15;;;;;;;9.77;7.60;;;;;;;-0.15;72.97;99942.44;6213423;23;20078;-66
2021/12/26 06:25:38;;;;;;;11.98;8.68;;;;;;;-0.13;73.16;99935.50;6214220;23;20035;-66
2021/12/26 06:29:05;;;;;;;10.05;8.18;;;;;;;-0.15;73.72;99934.72;6195855;23;20071;-66
2021/12/26 06:32:31;;;;;;;10.43;8.48;;;;;;;-0.02;73.56;99931.88;6214320;23;20143;-66
2021/12/26 06:35:53;;;;;;;11.18;8.88;;;;;;;-0.10;72.89;99931.16;6214335;23;20023;-66
2021/12/26 06:39:15;;;;;;;10.02;7.88;;;;;;;-0.28;74.67;99924.66;6214315;23;20031;-62
2021/12/26 06:45:42;;;;;;;10.65;8.40;;;;;;;-0.13;73.84;99920.09;6188623;22;20033;-65
2021/12/26 06:49:04;;;;;;;10.50;8.65;;;;;;;-0.04;73.52;99933.63;6179894;23;20024;-64
2021/12/26 06:52:08;;;;;;;13.65;8.38;;;;;;;-0.07;73.65;99936.25;6179674;23;20148;-64
2021/12/26 06:55:12;;;;;;;10.52;8.07;;;;;;;-0.09;73.37;99929.47;6182919;23;20358;-65
2021/12/26 06:58:16;;;;;;;;;;;;;;;-0.06;73.75;99937.13;6183157;23;20083;-63
2021/12/26 07:01:19;;;;;;;12.98;8.60;;;;;;;-0.02;73.90;99938.75;6182085;23;20002;-64
2021/12/26 07:04:22;;;;;;;10.95;8.23;;;;;;;-0.03;73.32;99935.34;6183310;23;20043;-65
2021/12/26 07:07:26;;;;;;;12.43;10.10;;;;;;;-0.14;73.54;99939.81;6183806;23;20028;-65
2021/12/26 07:10:30;;;;;;;11.15;8.80;;;;;;;-0.06;73.35;99944.84;6184350;23;20028;-63
2021/12/26 07:13:35;;;;;;;13.10;9.32;;;;;;;-0.02;74.05;99944.72;6184041;23;20027;-63
2021/12/26 07:16:40;;;;;;;8.77;7.72;;;;;;;0.11;73.93;99940.22;6183345;23;20096;-64
2021/12/26 07:19:43;;;;;;;10.63;8.25;;;;;;;-0.03;73.58;99942.22;6184027;23;20023;-64
2021/12/26 07:22:58;;;;;;;13.35;9.10;;;;;;;-0.04;73.45;99940.50;6182028;23;20317;-64
2021/12/26 07:26:02;;;;;;;10.13;8.15;;;;;;;0.07;73.65;99937.75;6183699;23;20027;-64
2021/12/26 07:29:05;;;;;;;9.70;8.02;;;;;;;0.10;73.28;99948.81;6184741;23;20027;-64
2021/12/26 07:32:11;;;;;;;10.07;7.85;;;;;;;0.00;73.87;99957.56;6177142;23;20083;-64
2021/12/26 07:35:16;;;;;;;10.77;8.70;;;;;;;-0.01;73.60;99963.56;6177849;23;20028;-64
2021/12/26 07:38:20;;;;;;;11.48;8.15;;;;;;;0.06;73.33;99959.16;6177775;23;20508;-64
2021/12/26 07:41:24;;;;;;;13.88;8.70;;;;;;;0.06;73.29;99959.16;6180054;23;20104;-64
2021/12/26 07:44:29;;;;;;;10.63;8.43;;;;;;;0.01;73.68;99955.84;6178629;23;20114;-64
2021/12/26 07:47:50;;;;;;;10.70;8.43;;;;;;;0.05;73.64;99958.31;6204315;23;20032;-64
2021/12/26 07:50:54;;;;;;;10.23;8.13;;;;;;;0.00;73.76;99949.88;6209490;23;20118;-64
2021/12/26 07:54:17;;;;;;;11.10;8.65;;;;;;;0.07;73.44;99953.16;6209111;23;20354;-64
2021/12/26 07:57:41;;;;;;;11.15;8.70;;;;;;;-0.01;74.47;99956.69;6209475;23;20507;-64
2021/12/26 08:01:03;;;;;;;9.65;8.05;;;;;;;0.03;74.30;99967.78;6208022;23;20277;-65
2021/12/26 08:04:29;;;;;;;11.23;8.75;;;;;;;0.09;74.24;99970.22;6209957;23;20027;-64
2021/12/26 08:07:58;;;;;;;11.48;8.73;;;;;;;0.11;74.33;99975.38;6189426;23;20410;-65
2021/12/26 08:11:01;;;;;;;12.43;8.70;;;;;;;0.00;74.89;99973.00;6189771;23;20228;-64
2021/12/26 08:14:06;;;;;;;9.98;8.25;;;;;;;0.05;74.68;99970.34;6208029;23;20043;-65
2021/12/26 08:17:09;;;;;;;11.20;8.82;;;;;;;0.09;74.50;99962.53;6208973;23;20078;-64
2021/12/26 08:20:13;;;;;;;10.70;8.38;;;;;;;0.01;75.34;99971.28;6209699;23;20090;-64
2021/12/26 08:23:16;;;;;;;14.30;9.48;;;;;;;-0.01;75.29;99971.28;6208346;23;20549;-65
2021/12/26 08:26:19;;;;;;;13.82;10.07;;;;;;;0.01;74.88;99969.53;6207760;23;20361;-65
2021/12/26 08:29:23;;;;;;;13.00;9.35;;;;;;;0.07;74.88;99969.44;6208333;23;20055;-65
2021/12/26 08:32:28;;;;;;;;;;;;;;;0.09;74.68;99970.22;6209542;23;20390;-65
2021/12/26 08:35:32;;;;;;;9.63;7.88;;;;;;;0.19;74.69;99971.78;6209542;23;19921;-70
2021/12/26 08:38:37;;;;;;;10.10;8.02;;;;;;;0.21;74.45;99967.44;6209732;23;20104;-65
2021/12/26 08:41:40;;;;;;;11.80;9.18;;;;;;;0.21;74.70;99959.72;6208799;23;20209;-65
2021/12/26 08:44:43;;;;;;;11.30;8.80;;;;;;;0.23;74.50;99962.28;6207595;23;20073;-65
2021/12/26 08:47:48;;;;;;;12.70;8.80;;;;;;;0.20;74.24;99963.19;6208299;23;20027;-65
2021/12/26 08:50:55;;;;;;;10.90;8.82;;;;;;;0.24;74.28;99963.97;6208144;23;20096;-65
2021/12/26 08:54:00;;;;;;;17.38;12.23;;;;;;;0.22;73.59;99964.00;6208544;23;20358;-65
2021/12/26 08:57:03;;;;;;;17.75;12.10;;;;;;;0.19;74.05;99968.34;6209184;23;20366;-65
2021/12/26 09:00:10;;;;;;;12.73;9.27;;;;;;;0.16;74.38;99968.38;6207922;23;20433;-65
2021/12/26 09:03:14;;;;;;;14.25;10.82;;;;;;;0.21;74.43;99972.59;6208451;23;20429;-65
2021/12/26 09:06:17;;;;;;;15.05;10.10;;;;;;;0.11;74.14;99971.06;6206308;23;20468;-65
2021/12/26 09:09:21;;;;;;;12.13;8.95;;;;;;;0.15;74.06;99972.69;6206230;23;20488;-65
2021/12/26 09:12:24;;;;;;;10.88;8.00;;;;;;;0.28;74.25;99972.47;6206741;23;20457;-65
2021/12/26 09:15:27;;;;;;;12.23;8.73;;;;;;;0.32;73.18;99974.97;6208251;23;20409;-65
2021/12/26 09:18:31;;;;;;;12.48;8.63;;;;;;;0.26;73.65;99971.66;6208809;23;20147;-65
2021/12/26 09:21:35;;;;;;;;;;;;;;;0.39;73.16;99981.69;6208862;23;20031;-65
2021/12/26 09:24:38;;;;;;;10.82;7.93;;;;;;;0.32;72.84;99977.53;6207414;23;19958;-65
2021/12/26 09:27:42;;;;;;;13.25;9.32;;;;;;;0.29;72.36;99989.59;6210371;23;20028;-65
2021/12/26 09:30:45;;;;;;;12.32;9.23;;;;;;;0.32;71.71;99990.41;6209483;23;20084;-65
2021/12/26 09:33:49;;;;;;;12.40;8.63;;;;;;;0.30;72.90;99991.28;6212546;23;20039;-65
2021/12/26 09:36:52;;;;;;;11.70;8.25;;;;;;;0.25;72.68;99998.25;6212773;23;20311;-65
2021/12/26 09:39:56;;;;;;;;;;;;;;;0.37;72.75;99992.88;6213878;23;20023;-65
2021/12/26 09:42:59;;;;;;;12.68;8.60;;;;;;;0.31;73.41;99985.28;6213376;23;20384;-65
2021/12/26 09:46:02;;;;;;;;;;;;;;;0.28;73.76;99988.75;6213821;23;20366;-65
2021/12/26 09:49:05;;;;;;;11.18;8.45;;;;;;;0.30;73.35;99983.59;6213284;23;19915;-65
2021/12/26 09:52:09;;;;;;;;;;;;;;;0.36;73.81;99976.59;6213500;23;20504;-65
2021/12/26 09:55:12;;;;;;;12.15;9.15;;;;;;;0.38;72.80;99980.00;6213935;23;19926;-65
2021/12/26 09:58:15;;;;;;;11.02;8.65;;;;;;;0.40;72.81;99978.22;6213240;23;20027;-65
2021/12/26 10:01:41;;;;;;;10.77;8.55;;;;;;;0.42;72.98;99975.63;6213792;23;20051;-65
2021/12/26 10:04:45;;;;;;;12.25;9.23;;;;;;;0.40;73.66;99967.09;6213681;23;20063;-65
2021/12/26 10:08:05;;;;;;;12.93;9.30;;;;;;;0.44;73.02;99974.69;6213603;23;20042;-65
2021/12/26 10:11:18;;;;;;;11.02;9.35;;;;;;;0.55;73.50;99966.78;6213681;23;20028;-65
2021/12/26 10:14:24;;;;;;;12.52;8.90;;;;;;;0.55;73.00;99960.81;6213268;23;20079;-65
2021/12/26 10:17:28;;;;;;;15.95;9.35;;;;;;;0.53;73.51;99958.25;6213290;23;20028;-65
2021/12/26 10:20:35;;;;;;;12.00;9.20;;;;;;;0.55;73.58;99955.66;6213326;23;20023;-65
2021/12/26 10:23:38;;;;;;;12.18;9.68;;;;;;;0.58;73.08;99951.28;6213191;23;20023;-65
2021/12/26 10:26:52;;;;;;;11.18;8.82;;;;;;;0.61;72.98;99951.22;6212645;23;20027;-65
2021/12/26 10:29:58;;;;;;;13.27;11.05;;;;;;;0.64;73.42;99951.16;6213267;23;20028;-65
2021/12/26 10:33:01;;;;;;;13.70;10.00;;;;;;;0.57;73.56;99944.44;6187889;23;20074;-65
2021/12/26 10:36:06;;;;;;;12.32;9.82;;;;;;;0.56;73.33;99936.75;6189383;23;20027;-65
2021/12/26 10:39:17;;;;;;;11.55;9.60;;;;;;;0.58;74.03;99941.00;6191905;23;20023;-65
2021/12/26 10:42:26;;;;;;;13.73;9.40;;;;;;;0.50;74.48;99945.44;6192125;23;20400;-65
2021/12/26 10:45:33;;;;;;;12.45;9.50;;;;;;;0.40;74.72;99934.50;6210504;23;20114;-65
2021/12/26 10:48:36;;;;;;;13.98;11.02;;;;;;;0.55;74.37;99933.34;6191962;23;20071;-65
2021/12/26 10:51:39;;;;;;;13.35;10.20;;;;;;;0.49;75.04;99930.06;6208815;23;20373;-65
2021/12/26 10:54:48;;;;;;;14.20;10.40;;;;;;;0.44;76.34;99935.28;6209300;23;20031;-66
2021/12/26 10:57:52;;;;;;;14.82;10.57;;;;;;;0.46;76.08;99930.97;6209108;23;20074;-65
2021/12/26 11:00:57;;;;;;;16.73;11.00;;;;;;;0.47;75.74;99927.50;6209178;23;20362;-65
2021/12/26 11:04:07;;;;;;;15.40;10.82;;;;;;;0.53;75.98;99924.81;6210601;23;20051;-65
2021/12/26 11:07:10;;;;;;;17.00;11.90;;;;;;;0.61;76.05;99914.38;6210073;23;20472;-65
2021/12/26 11:10:31;;;;;;;14.88;11.35;;;;;;;0.55;76.26;99914.50;6210514;23;20031;-65
2021/12/26 11:13:34;;;;;;;13.02;10.27;;;;;;;0.64;75.80;99904.84;6209578;23;20027;-65
2021/12/26 11:16:40;;;;;;;12.13;9.93;;;;;;;0.62;76.40;99903.19;6210265;23;20074;-65
2021/12/26 11:19:45;;;;;;;14.65;11.70;;;;;;;0.63;76.80;99903.16;6209298;23;20070;-65
2021/12/26 11:22:49;;;;;;;16.13;11.68;;;;;;;0.60;76.74;99905.78;6209936;23;20027;-65
2021/12/26 11:26:02;;;;;;;15.65;11.43;;;;;;;0.63;76.58;99910.88;6209300;23;20101;-65
2021/12/26 11:29:06;;;;;;;14.82;11.27;;;;;;;0.64;77.16;99909.16;6207602;23;20115;-65
2021/12/26 11:32:09;;;;;;;;;;;;;;;0.60;76.94;99903.22;6209807;23;20039;-65
2021/12/26 11:35:13;;;;;;;13.70;10.60;;;;;;;0.62;77.35;99896.31;6208617;23;20265;-65
2021/12/26 11:38:19;;;;;;;16.23;13.10;;;;;;;0.50;78.16;99891.44;6209494;23;20294;-65
2021/12/26 11:41:53;;;;;;;14.60;10.93;;;;;;;0.57;78.09;99894.72;6208993;23;20245;-65
2021/12/26 11:45:53;;;;;;;16.20;12.13;;;;;;;0.67;78.20;99891.94;6097566;23;20523;-66
2021/12/26 11:50:01;;;;;;;12.38;8.95;;;;;;;0.62;78.61;99885.19;6206829;23;20032;-65
2021/12/26 11:53:43;;;;;;;16.05;11.93;;;;;;;0.56;78.88;99881.00;6209090;23;20027;-65
2021/12/26 11:57:18;;;;;;;16.23;12.35;;;;;;;0.49;79.18;99884.59;6191030;23;20474;-65
2021/12/26 12:00:34;;;;;;;15.68;12.05;;;;;;;0.41;79.49;99871.03;6208642;23;20088;-65
2021/12/26 12:03:37;;;;;;;17.60;12.40;;;;;;;0.52;80.09;99869.09;6208967;23;20410;-65
2021/12/26 12:06:41;;;;;;;16.92;12.52;;;;;;;0.56;80.46;99870.72;6208814;23;20019;-65
2021/12/26 12:09:46;;;;;;;17.23;13.32;;;;;;;0.60;79.94;99880.06;6207545;23;20023;-65
2021/12/26 12:12:49;;;;;;;16.35;12.55;;;;;;;0.67;79.69;99870.47;6207805;23;20047;-65
2021/12/26 12:15:55;;;;;;;16.25;12.80;;;;;;;0.59;79.91;99874.97;6208811;23;20059;-65
2021/12/26 12:19:09;;;;;;;16.27;13.60;;;;;;;0.65;79.98;99869.69;6212316;23;20024;-65
2021/12/26 12:22:13;;;;;;;18.58;13.55;;;;;;;0.55;80.06;99865.63;6214026;23;20403;-65
2021/12/26 12:25:38;;;;;;;18.77;13.73;;;;;;;0.59;80.81;99862.94;6214277;23;20022;-65
2021/12/26 12:28:43;;;;;;;16.20;12.43;;;;;;;0.64;80.04;99868.84;6213949;23;20055;-65
2021/12/26 12:31:46;;;;;;;19.45;14.18;;;;;;;0.45;80.50;99867.56;6213526;23;20027;-65
2021/12/26 12:35:04;;;;;;;15.48;12.35;;;;;;;0.61;80.18;99866.34;6213775;23;20553;-65
2021/12/26 12:38:23;;;;;;;15.85;13.18;;;;;;;0.42;80.53;99865.03;6214775;23;20023;-65
2021/12/26 12:41:35;;;;;;;19.02;12.52;;;;;;;0.63;80.32;99867.13;6213954;23;20023;-65
2021/12/26 12:44:44;;;;;;;15.32;12.27;;;;;;;0.61;80.26;99868.91;6214102;23;20023;-65
2021/12/26 12:47:48;;;;;;;18.55;13.38;;;;;;;0.58;80.19;99863.00;6213521;23;20074;-65
2021/12/26 12:50:54;;;;;;;17.35;13.10;;;;;;;0.59;80.52;99860.38;6214236;23;20040;-65
2021/12/26 12:54:04;;;;;;;18.85;14.10;;;;;;;0.68;79.93;99856.75;6214173;23;20024;-65
2021/12/26 12:57:07;;;;;;;17.30;12.57;;;;;;;0.68;79.86;99861.91;6213691;23;20516;-65
2021/12/26 13:00:23;;;;;;;17.27;13.15;;;;;;;0.57;80.44;99862.13;6214032;23;20024;-65
2021/12/26 13:03:26;;;;;;;16.98;13.73;;;;;;;0.63;80.06;99861.97;6213536;23;20070;-65
2021/12/26 13:06:29;;;;;;;15.75;12.80;;;;;;;0.78;79.62;99850.50;6214215;23;20024;-65
2021/12/26 13:09:33;;;;;;;;;;;;;;;0.79;79.70;99856.50;6214026;23;20028;-65
2021/12/26 13:12:37;;;;;;;18.58;13.25;;;;;;;0.72;80.44;99845.50;6214031;23;19914;-65
2021/12/26 13:15:52;;;;;;;17.42;13.73;;;;;;;0.61;80.29;99843.19;6214029;23;20023;-65
2021/12/26 13:19:04;;;;;;;19.27;12.88;;;;;;;0.68;80.51;99838.75;6213462;23;20073;-65
2021/12/26 13:22:07;;;;;;;18.60;13.68;;;;;;;0.71;80.13;99832.69;6207711;23;20022;-66
2021/12/26 13:25:34;;;;;;;19.80;14.15;;;;;;;0.78;80.20;99834.22;6208602;23;20106;-65
2021/12/26 13:28:39;;;;;;;18.02;13.80;;;;;;;0.79;79.92;99836.75;6207926;23;20055;-65
2021/12/26 13:31:42;;;;;;;15.65;12.70;;;;;;;0.80;79.94;99835.00;6206611;23;20047;-66
2021/12/26 13:34:53;;;;;;;16.13;13.43;;;;;;;0.70;80.10;99834.38;6207095;23;20496;-65
2021/12/26 13:37:57;;;;;;;16.67;13.57;;;;;;;0.64;80.41;99837.97;6188835;23;20099;-66
2021/12/26 13:41:00;;;;;;;16.50;13.05;;;;;;;0.65;80.70;99843.94;6208028;23;20458;-65
2021/12/26 13:44:04;;;;;;;22.42;14.45;;;;;;;0.77;80.13;99840.25;6208907;23;20413;-65
2021/12/26 13:47:07;;;;;;;18.15;13.73;;;;;;;0.77;80.40;99832.53;6208185;23;20098;-65
2021/12/26 13:50:14;;;;;;;19.15;14.90;;;;;;;0.82;80.32;99833.25;6207917;23;20095;-65
2021/12/26 13:53:17;;;;;;;16.25;13.55;;;;;;;0.82;80.03;99831.53;6209235;23;20358;-65
2021/12/26 13:56:21;;;;;;;18.67;13.80;;;;;;;0.84;80.22;99827.19;6213051;23;20024;-65
2021/12/26 13:59:35;;;;;;;16.55;12.65;;;;;;;0.77;80.33;99824.81;6211144;23;20027;-65
2021/12/26 14:02:38;;;;;;;;;;;;;;;0.80;80.38;99817.88;6211830;23;20082;-65
2021/12/26 14:05:41;;;;;;;18.02;13.70;;;;;;;0.75;80.64;99824.00;6208794;23;20361;-65
2021/12/26 14:08:44;;;;;;;20.92;14.07;;;;;;;0.69;80.44;99815.53;6210145;23;20131;-65
2021/12/26 14:11:48;;;;;;;19.45;14.65;;;;;;;0.75;80.35;99817.13;6209575;23;20039;-65
2021/12/26 14:14:51;;;;;;;;;;;;;;;0.82;80.43;99812.66;6212105;23;20026;-65
2021/12/26 14:17:54;;;;;;;18.23;13.70;;;;;;;0.75;80.18;99813.72;6211893;23;19934;-65
2021/12/26 14:21:09;;;;;;;22.65;14.30;;;;;;;0.83;80.45;99819.50;6211381;23;20035;-65
2021/12/26 14:24:19;;;;;;;18.20;14.60;;;;;;;0.81;80.46;99816.13;6212726;23;20067;-65
2021/12/26 14:27:23;;;;;;;18.48;14.23;;;;;;;0.85;80.08;99813.44;6212302;23;20094;-65
2021/12/26 14:30:26;;;;;;;21.42;14.30;;;;;;;0.74;80.37;99812.03;6211570;23;20034;-65
2021/12/26 14:33:43;;;;;;;;;;;;;;;0.80;80.55;99817.88;6210479;23;20027;-65
2021/12/26 14:36:51;;;;;;;17.63;13.52;;;;;;;0.69;80.76;99815.53;6212341;23;20320;-65
2021/12/26 14:39:55;;;;;;;17.65;13.50;;;;;;;0.69;81.18;99812.97;6211103;23;20044;-65
2021/12/26 14:43:05;;;;;;;19.50;14.23;;;;;;;0.78;80.53;99819.63;6211246;23;20083;-65
2021/12/26 14:46:10;;;;;;;18.80;14.32;;;;;;;0.85;80.10;99815.19;6210728;23;20032;-65
2021/12/26 14:49:16;;;;;;;19.92;14.55;;;;;;;0.83;80.13;99822.06;6211717;23;20392;-65
2021/12/26 14:52:21;;;;;;;17.95;13.48;;;;;;;0.83;80.33;99811.78;6193950;23;20074;-65
2021/12/26 14:55:28;;;;;;;19.55;14.20;;;;;;;0.72;81.05;99816.34;6211621;23;20028;-65